Mid Delta Regional Airport
KGLH : now visible

Airfield :











YOU CAN JOIN US ON...

 
LOGIN :

Register | Disclaimer

   EN    FR    IT 

 









Legend :    VFR   Marginal VFR   IFR   Intensive IFR   Very Intensive IFR
Visi :
Ceiling :
>= 8 km
>= 3000ft
5 to 8 km
1000 to 3000 ft
1500m to 5 km
500 to 1000 ft
800 to 1500m
200 to 500 ft
< 800m
< 200 ft
Symbols :   Thunderstorms  Fog  Heavy snow  Heavy precipitations  Wind > 20 kt






- Airport Elevation : 131 ft
- IATA code : GLH


KGLH - Mid Delta Regional

CURRENT METAR :
  • 270253Z AUTO 02010KT 10SM OVC100 14/08 A2996 RMK AO2 SLP152 T01390083 53009

EXPIRED METARs :
  • 270153Z AUTO 04009KT 10SM BKN100 15/10 A2994 RMK AO2 SLP146 T01500100
  • 270053Z AUTO 02003KT 10SM OVC095 14/11 A2994 RMK AO2 SLP146 T01390111

TAF KGLH
Valid from the 27 at 00:00 until the 28 at 00:00 UTC


262329Z 2700/2724 08005KT P6SM BKN110
FM271200 36011KT P6SM OVC015
FM271500 34016G21KT P6SM OVC015
FM272000 33016G22KT P6SM OVC025
KZME FIR / North America



MET'MAP, your aeronautical weather chart ! - Copyright ORBIFLY December 2007 - Disclaimer

ORBIFLY MET'MAP TEAM :

Programming & Development : Alexandra Zaïnal
Concept & original design : Baudouin d'Aumeries
Assistance for programming : Marc-Olivier Méhu
Technical & hardware support : Manuel Goepfert

Contact : metmap@orbifly.com




SOURCES & CREDITS :

   NOAA       Earth
Advisory